createdAt,value
2023-03-11T00:03:10.312Z,54.60
2023-03-11T00:18:13.505Z,43.80
2023-03-11T00:33:17.166Z,43.50
2023-03-11T00:48:20.334Z,38.50
2023-03-11T01:03:23.595Z,30.70
2023-03-11T01:18:27.289Z,24.80
2023-03-11T01:33:30.454Z,25.00
2023-03-11T01:48:33.785Z,21.60
2023-03-11T02:03:41.157Z,22.40
2023-03-11T02:18:44.669Z,20.30
2023-03-11T02:33:51.099Z,17.50
2023-03-11T02:48:56.512Z,18.70
2023-03-11T03:03:59.779Z,15.50
2023-03-11T03:19:04.682Z,15.10
2023-03-11T03:34:08.886Z,19.10
2023-03-11T03:49:13.324Z,12.40
2023-03-11T04:04:17.515Z,10.70
2023-03-11T04:19:21.933Z,6.80
2023-03-11T04:34:25.216Z,6.70
2023-03-11T04:49:31.526Z,4.90
2023-03-11T05:04:35.384Z,5.90
2023-03-11T05:19:39.106Z,6.50
2023-03-11T05:34:50.018Z,9.20
2023-03-11T05:49:53.441Z,23.30
2023-03-11T06:04:56.930Z,11.60
2023-03-11T06:20:00.828Z,10.70
2023-03-11T06:35:06.179Z,18.20
2023-03-11T06:50:10.941Z,7.40
2023-03-11T07:05:14.540Z,8.50
2023-03-11T07:20:18.945Z,10.00
2023-03-11T07:35:22.349Z,7.60
2023-03-11T07:50:25.968Z,14.10
2023-03-11T08:05:34.387Z,13.40
2023-03-11T08:20:39.149Z,8.20
2023-03-11T08:35:42.587Z,8.80
2023-03-11T08:50:53.728Z,18.40
2023-03-11T09:05:59.268Z,31.20
2023-03-11T09:21:02.784Z,23.60
2023-03-11T09:36:07.229Z,17.10
2023-03-11T09:51:17.505Z,14.40
2023-03-11T10:06:30.237Z,14.20
2023-03-11T10:22:25.705Z,10.30
2023-03-11T10:37:49.783Z,10.20
2023-03-11T10:53:10.210Z,9.00
2023-03-11T11:08:17.414Z,9.30
2023-03-11T11:23:32.240Z,10.50
2023-03-11T11:38:35.840Z,9.40
2023-03-11T11:53:56.009Z,8.00
2023-03-11T12:09:24.471Z,9.70
2023-03-11T12:24:56.273Z,10.30
2023-03-11T12:40:02.276Z,14.10
2023-03-11T12:55:15.502Z,10.10
2023-03-11T13:10:38.873Z,8.90
2023-03-11T13:26:07.851Z,7.20
2023-03-11T13:41:28.252Z,6.70
2023-03-11T13:56:34.407Z,9.00
2023-03-11T14:11:40.248Z,8.80
2023-03-11T14:26:44.652Z,8.70
2023-03-11T14:41:48.395Z,10.10
2023-03-11T14:57:06.992Z,51.30
2023-03-11T15:12:31.645Z,40.40
2023-03-11T15:27:38.782Z,26.30
2023-03-11T15:42:52.780Z,45.10
2023-03-11T15:58:06.892Z,17.30
2023-03-11T16:13:15.655Z,16.70
2023-03-11T16:28:19.229Z,63.60
2023-03-11T16:43:23.550Z,29.80
2023-03-11T16:58:26.976Z,46.90
2023-03-11T17:13:30.343Z,22.80
2023-03-11T17:28:35.035Z,24.30
2023-03-11T17:43:38.754Z,15.80
2023-03-11T17:58:42.227Z,11.00
2023-03-11T18:13:46.286Z,43.60
2023-03-11T18:28:52.993Z,71.00
2023-03-11T18:44:00.035Z,45.60
2023-03-11T18:59:03.415Z,17.00
2023-03-11T19:14:09.222Z,14.20
2023-03-11T19:29:14.495Z,25.80
2023-03-11T19:44:18.028Z,36.80
2023-03-11T19:59:22.046Z,16.30
2023-03-11T20:14:25.942Z,13.80
2023-03-11T20:29:29.280Z,10.90
2023-03-11T20:44:32.541Z,11.00
2023-03-11T20:59:35.891Z,17.80
2023-03-11T21:14:39.252Z,16.00
2023-03-11T21:29:44.049Z,9.30
2023-03-11T21:44:47.407Z,10.70
2023-03-11T21:59:50.621Z,11.30
2023-03-11T22:14:53.952Z,9.10
2023-03-11T22:29:57.202Z,8.40
2023-03-11T22:45:00.480Z,9.10
2023-03-11T23:00:09.122Z,6.50
2023-03-11T23:15:16.208Z,6.90
2023-03-11T23:30:19.437Z,6.30
2023-03-11T23:45:23.007Z,7.30
